KN6DHD Weather Reports


time (UTC)temp
C
wind
direction
speed
KPH
gust
KPH
rain 1hr
cm
rain 24hr
cm
rain mn
cm
humidity
%
barometer
mb
20260506212822 25 104 1.6 1.6 0.00 0.00 0.00 53 1019.1
20260506212318 25 122 3.2 3.2 0.00 0.00 0.00 54 1019.3
20260506211813 25 127 1.6 3.2 0.00 0.00 0.00 52 1019.1
20260506211309 25 53 1.6 3.2 0.00 0.00 0.00 52 1019.4
20260506210807 25 354 3.2 4.8 0.00 0.00 0.00 53 1019.4
20260506210303 25 47 0.0 1.6 0.00 0.00 0.00 54 1019.3
20260506205801 25 4 4.8 8.0 0.00 0.00 0.00 52 1019.5
20260506205256 26 56 3.2 4.8 0.00 0.00 0.00 52 1019.6
20260506204753 25 111 1.6 3.2 0.00 0.00 0.00 52 1019.6
20260506204251 24 36 1.6 1.6 0.00 0.00 0.00 55 1019.7
20260506203748 23 54 0.0 1.6 0.00 0.00 0.00 55 1019.9
20260506203245 25 345 3.2 3.2 0.00 0.00 0.00 52 1019.9
20260506202742 24 25 3.2 3.2 0.00 0.00 0.00 54 1020.0
20260506202239 23 26 4.8 8.0 0.00 0.00 0.00 54 1020.1
20260506201736 23 91 3.2 3.2 0.00 0.00 0.00 57 1020.2
20260506201233 23 97 3.2 3.2 0.00 0.00 0.00 55 1020.0
20260506200730 23 348 4.8 8.0 0.00 0.00 0.00 56 1020.2
20260506200226 22 105 0.0 1.6 0.00 0.00 0.00 59 1020.4
20260506195722 22 346 4.8 8.0 0.00 0.00 0.00 57 1020.3
20260506195219 22 79 0.0 1.6 0.00 0.00 0.00 59 1020.3
20260506194716 22 61 1.6 1.6 0.00 0.00 0.00 58 1020.6
20260506194213 22 76 1.6 3.2 0.00 0.00 0.00 61 1020.5
20260506193711 22 186 4.8 4.8 0.00 0.00 0.00 60 1020.6
20260506193207 22 95 0.0 1.6 0.00 0.00 0.00 61 1020.6
20260506192704 22 347 3.2 4.8 0.00 0.00 0.00 61 1020.9
20260506192200 22 82 1.6 1.6 0.00 0.00 0.00 62 1020.7
20260506191658 22 341 3.2 3.2 0.00 0.00 0.00 62 1020.6
20260506191153 21 131 0.0 1.6 0.00 0.00 0.00 65 1020.8
20260506190651 21 348 3.2 3.2 0.00 0.00 0.00 64 1020.9
20260506190147 20 259 3.2 3.2 0.00 0.00 0.00 67 1021.0
20260506185645 20 190 1.6 3.2 0.00 0.00 0.00 67 1020.9
20260506185141 20 89 1.6 1.6 0.00 0.00 0.00 66 1020.7
20260506184639 21 10 1.6 1.6 0.00 0.00 0.00 65 1021.0
20260506184136 20 345 4.8 4.8 0.00 0.00 0.00 69 1021.1
20260506183632 20 2 4.8 4.8 0.00 0.00 0.00 67 1021.2
20260506183128 20 132 1.6 1.6 0.00 0.00 0.00 68 1021.0
20260506182626 20 78 0.0 1.6 0.00 0.00 0.00 69 1021.1
20260506182122 20 161 3.2 3.2 0.00 0.00 0.00 70 1021.3
20260506181620 19 129 3.2 3.2 0.00 0.00 0.00 71 1021.2
20260506181117 19 160 3.2 3.2 0.00 0.00 0.00 71 1021.2
20260506180614 19 106 0.0 0.0 0.00 0.00 0.00 72 1021.1
20260506180111 18 191 4.8 8.0 0.00 0.00 0.00 72 1021.4
20260506175607 19 79 1.6 1.6 0.00 0.00 0.00 71 1021.4
20260506175103 18 82 0.0 0.0 0.00 0.00 0.00 73 1021.2
20260506174602 18 113 0.0 0.0 0.00 0.00 0.00 75 1021.4
20260506174058 18 55 0.0 1.6 0.00 0.00 0.00 74 1021.2
20260506173556 18 116 0.0 0.0 0.00 0.00 0.00 74 1021.1
20260506173052 18 106 1.6 3.2 0.00 0.00 0.00 74 1021.3
20260506172550 17 89 0.0 1.6 0.00 0.00 0.00 76 1021.3
20260506172046 18 77 1.6 1.6 0.00 0.00 0.00 74 1021.4
20260506171543 17 117 0.0 0.0 0.00 0.00 0.00 76 1021.5
20260506171040 17 146 3.2 3.2 0.00 0.00 0.00 78 1021.4
20260506170538 17 157 1.6 1.6 0.00 0.00 0.00 78 1021.4
20260506170030 17 206 3.2 3.2 0.00 0.00 0.00 77 1021.6
20260506165528 17 97 0.0 0.0 0.00 0.00 0.00 79 1021.5
20260506165024 16 105 0.0 0.0 0.00 0.00 0.00 79 1021.5
20260506164521 16 165 3.2 4.8 0.00 0.00 0.00 79 1021.2
20260506164018 16 96 1.6 1.6 0.00 0.00 0.00 80 1021.3
20260506163514 16 94 0.0 0.0 0.00 0.00 0.00 81 1021.2
20260506163010 16 108 1.6 1.6 0.00 0.00 0.00 82 1021.3
20260506162506 16 77 1.6 1.6 0.00 0.00 0.00 81 1021.3
20260506162004 16 110 0.0 0.0 0.00 0.00 0.00 82 1021.3
20260506161501 16 121 1.6 1.6 0.00 0.00 0.00 82 1021.3
20260506160958 16 143 1.6 1.6 0.00 0.00 0.00 82 1021.5
20260506160455 15 103 0.0 0.0 0.00 0.00 0.00 83 1021.2
20260506155952 15 99 0.0 0.0 0.00 0.00 0.00 83 1021.3
20260506155450 15 91 0.0 0.0 0.00 0.00 0.00 83 1021.4
20260506153617 15 113 0.0 0.0 0.00 0.00 0.00 83 1021.2
20260506153114 15 120 0.0 1.6 0.00 0.00 0.00 83 1021.4
20260506152611 15 141 1.6 1.6 0.00 0.00 0.00 83 1021.4
20260506152109 15 131 0.0 1.6 0.00 0.00 0.00 83 1021.5
20260506151607 15 89 1.6 1.6 0.00 0.00 0.00 83 1021.3
20260506151104 15 113 0.0 1.6 0.00 0.00 0.00 83 1021.2
20260506150601 15 153 3.2 3.2 0.00 0.00 0.00 83 1021.1
20260506150057 15 108 0.0 0.0 0.00 0.00 0.00 84 1021.2
20260506145554 15 112 0.0 0.0 0.00 0.00 0.00 85 1021.3
20260506145052 14 104 0.0 0.0 0.00 0.00 0.00 85 1021.3
20260506144548 14 117 0.0 0.0 0.00 0.00 0.00 85 1021.2
20260506144045 14 99 1.6 1.6 0.00 0.00 0.00 85 1021.1
20260506143543 14 129 1.6 1.6 0.00 0.00 0.00 85 1021.4
20260506143041 14 79 1.6 1.6 0.00 0.00 0.00 86 1021.3
20260506142538 14 113 1.6 1.6 0.00 0.00 0.00 86 1021.0
20260506142037 14 107 0.0 0.0 0.00 0.00 0.00 86 1020.9
20260506141534 14 114 0.0 0.0 0.00 0.00 0.00 86 1021.0
20260506141032 14 118 0.0 0.0 0.00 0.00 0.00 86 1020.9
20260506140529 14 101 0.0 0.0 0.00 0.00 0.00 87 1020.9
20260506140027 14 95 1.6 1.6 0.00 0.00 0.00 87 1021.0
20260506135523 13 112 0.0 1.6 0.00 0.00 0.00 87 1020.8
20260506135019 13 92 0.0 1.6 0.00 0.00 0.00 87 1020.7
20260506134516 13 117 0.0 0.0 0.00 0.00 0.00 87 1020.7
20260506134012 13 116 0.0 0.0 0.00 0.00 0.00 88 1020.6
20260506133510 13 108 0.0 0.0 0.00 0.00 0.00 88 1020.8
20260506133006 13 115 0.0 0.0 0.00 0.00 0.00 88 1020.5
20260506132503 13 118 0.0 0.0 0.00 0.00 0.00 88 1020.6
20260506132001 13 107 0.0 0.0 0.00 0.00 0.00 88 1020.6
20260506131457 13 113 0.0 0.0 0.00 0.00 0.00 88 1020.6
20260506130954 13 102 0.0 0.0 0.00 0.00 0.00 88 1020.7
20260506130450 13 103 0.0 0.0 0.00 0.00 0.00 88 1020.6
20260506125948 13 104 0.0 0.0 0.00 0.00 0.00 88 1020.5
20260506125447 13 104 0.0 0.0 0.00 0.00 0.00 88 1020.4
20260506124944 13 102 0.0 0.0 0.00 0.00 0.00 88 1020.4
20260506124442 13 102 0.0 0.0 0.00 0.00 0.00 88 1020.2
20260506123939 13 96 0.0 0.0 0.00 0.00 0.00 88 1020.3
20260506123438 13 97 0.0 0.0 0.00 0.00 0.00 88 1020.4
20260506122935 13 101 0.0 0.0 0.00 0.00 0.00 88 1020.4
20260506122431 13 101 0.0 0.0 0.00 0.00 0.00 88 1020.1
20260506121930 13 103 0.0 0.0 0.00 0.00 0.00 88 1020.3
20260506121426 13 103 0.0 0.0 0.00 0.00 0.00 88 1020.3
20260506120923 13 103 0.0 0.0 0.00 0.00 0.00 88 1020.2
20260506120421 13 104 0.0 0.0 0.00 0.00 0.00 88 1020.2
20260506115918 13 112 0.0 0.0 0.00 0.00 0.00 88 1020.3
20260506115415 13 116 0.0 0.0 0.00 0.00 0.00 88 1020.4
20260506114914 13 100 0.0 0.0 0.00 0.00 0.00 88 1020.2
20260506114411 13 102 0.0 0.0 0.00 0.00 0.00 87 1020.1
20260506113910 13 107 0.0 0.0 0.00 0.00 0.00 87 1020.2
20260506113407 13 106 0.0 0.0 0.00 0.00 0.00 87 1020.0
20260506112903 13 105 0.0 0.0 0.00 0.00 0.00 87 1019.9
20260506112401 13 99 0.0 0.0 0.00 0.00 0.00 87 1020.0
20260506111858 13 79 0.0 1.6 0.00 0.00 0.00 86 1019.8
20260506111356 13 102 0.0 0.0 0.00 0.00 0.00 86 1019.9
20260506110853 14 88 0.0 0.0 0.00 0.00 0.00 86 1019.9
20260506110350 14 111 0.0 0.0 0.00 0.00 0.00 86 1019.7
20260506105847 14 104 0.0 0.0 0.00 0.00 0.00 86 1019.8
20260506105343 13 108 0.0 0.0 0.00 0.00 0.00 86 1019.9
20260506104841 13 93 1.6 1.6 0.00 0.00 0.00 86 1019.5
20260506104339 14 113 0.0 0.0 0.00 0.00 0.00 86 1019.5
20260506103836 14 127 0.0 1.6 0.00 0.00 0.00 85 1019.6
20260506103334 14 109 0.0 0.0 0.00 0.00 0.00 85 1019.5
20260506102831 14 103 0.0 0.0 0.00 0.00 0.00 85 1019.5
20260506102329 14 107 0.0 0.0 0.00 0.00 0.00 86 1019.6
20260506101826 14 117 0.0 0.0 0.00 0.00 0.00 86 1019.7
20260506101321 14 128 0.0 1.6 0.00 0.00 0.00 86 1019.4
20260506100820 14 99 0.0 0.0 0.00 0.00 0.00 85 1019.5
20260506100318 14 116 0.0 0.0 0.00 0.00 0.00 85 1019.6
20260506095816 14 108 0.0 0.0 0.00 0.00 0.00 86 1019.4
20260506095313 14 116 0.0 0.0 0.00 0.00 0.00 86 1019.5
20260506094809 14 120 0.0 0.0 0.00 0.00 0.00 86 1019.4
20260506094308 14 116 1.6 1.6 0.00 0.00 0.00 86 1019.1
20260506093806 14 126 0.0 0.0 0.00 0.00 0.00 86 1019.4
20260506093302 14 247 1.6 1.6 0.00 0.00 0.00 86 1019.5
20260506092800 14 107 0.0 0.0 0.00 0.00 0.00 86 1019.3
20260506092258 14 111 0.0 0.0 0.00 0.00 0.00 85 1019.2
20260506091755 14 110 0.0 0.0 0.00 0.00 0.00 85 1019.4
20260506091252 14 95 0.0 1.6 0.00 0.00 0.00 85 1019.2
20260506090750 14 112 0.0 0.0 0.00 0.00 0.00 85 1019.5
20260506090247 14 123 1.6 1.6 0.00 0.00 0.00 85 1019.1
20260506085744 14 93 0.0 0.0 0.00 0.00 0.00 85 1019.5
20260506085240 14 107 0.0 0.0 0.00 0.00 0.00 85 1019.6
20260506084737 14 99 0.0 0.0 0.00 0.00 0.00 85 1019.3
20260506084233 14 97 0.0 1.6 0.00 0.00 0.00 85 1019.4
20260506083730 14 100 0.0 1.6 0.00 0.00 0.00 85 1019.3
20260506083228 14 151 1.6 1.6 0.00 0.00 0.00 84 1019.4
20260506082725 14 94 0.0 0.0 0.00 0.00 0.00 85 1019.4
20260506082220 14 92 0.0 0.0 0.00 0.00 0.00 85 1019.5
20260506081719 14 114 0.0 0.0 0.00 0.00 0.00 85 1019.5
20260506081216 14 110 0.0 0.0 0.00 0.00 0.00 85 1019.4
20260506080714 14 168 0.0 1.6 0.00 0.00 0.00 85 1019.4
20260506080210 14 129 1.6 1.6 0.00 0.00 0.00 85 1019.4
20260506073154 14 125 1.6 1.6 0.00 0.00 0.00 85 1019.2
20260506072650 14 111 0.0 0.0 0.00 0.00 0.00 85 1019.1
20260506072148 14 125 0.0 0.0 0.00 0.00 0.00 85 1019.2
20260506071646 14 158 1.6 1.6 0.00 0.00 0.00 85 1019.2
20260506071143 14 112 0.0 0.0 0.00 0.00 0.00 85 1018.9
20260506070640 15 107 0.0 0.0 0.00 0.00 0.00 86 1019.0
20260506070137 15 114 0.0 0.0 0.00 0.08 0.08 85 1018.9
20260506062115 15 113 0.0 0.0 0.00 0.08 0.08 85 1018.5
20260506061610 15 212 3.2 4.8 0.00 0.08 0.08 86 1018.3
20260506061108 14 117 0.0 1.6 0.00 0.08 0.08 86 1018.4
20260506060606 14 122 0.0 0.0 0.00 0.08 0.08 86 1018.3
20260506051029 15 57 0.0 1.6 0.00 0.08 0.08 85 1018.0
20260506050527 15 143 1.6 1.6 0.00 0.08 0.08 84 1018.1
20260506045017 15 98 0.0 0.0 0.00 0.08 0.08 83 1017.9
20260506044516 15 112 0.0 0.0 0.00 0.08 0.08 83 1017.6
20260506044012 15 113 1.6 1.6 0.00 0.08 0.08 83 1017.7
20260506043509 15 119 1.6 3.2 0.00 0.08 0.08 82 1017.3
20260506043008 16 160 1.6 3.2 0.00 0.08 0.08 81 1017.2
20260506042507 16 97 1.6 1.6 0.00 0.08 0.08 81 1017.3
20260506042004 16 155 1.6 3.2 0.00 0.08 0.08 80 1017.4
20260506041503 16 339 3.2 3.2 0.00 0.08 0.08 80 1017.3
20260506040959 16 164 0.0 1.6 0.00 0.08 0.08 80 1017.2
20260506040457 16 101 1.6 1.6 0.00 0.08 0.08 80 1017.1
20260506035952 16 121 1.6 1.6 0.00 0.08 0.08 80 1017.4
20260506035450 16 176 1.6 1.6 0.00 0.08 0.08 80 1017.1
20260506034946 16 180 3.2 3.2 0.00 0.08 0.08 79 1017.3
20260506034444 17 136 1.6 3.2 0.00 0.08 0.08 80 1017.2
20260506033940 17 125 0.0 1.6 0.00 0.08 0.08 81 1016.9
20260506033438 17 142 0.0 1.6 0.00 0.08 0.08 81 1016.9
20260506032934 17 111 0.0 0.0 0.00 0.08 0.08 81 1016.7
20260506032432 17 117 0.0 0.0 0.00 0.08 0.08 81 1016.6
20260506031928 17 108 0.0 0.0 0.00 0.08 0.08 81 1016.7
20260506031426 17 110 0.0 0.0 0.00 0.08 0.08 81 1016.3
20260506030923 17 108 0.0 0.0 0.00 0.08 0.08 80 1016.4
20260506030421 17 86 0.0 1.6 0.00 0.08 0.08 80 1016.6
20260506025918 17 103 0.0 0.0 0.00 0.08 0.08 80 1016.3
20260506025415 17 99 0.0 0.0 0.00 0.08 0.08 80 1016.2
20260506024911 17 109 0.0 1.6 0.00 0.08 0.08 79 1016.2
20260506024408 17 116 0.0 0.0 0.00 0.08 0.08 78 1016.2
20260506023904 17 91 0.0 0.0 0.00 0.08 0.08 78 1016.1
20260506023401 17 155 0.0 1.6 0.00 0.08 0.08 78 1016.1
20260506022858 17 108 1.6 3.2 0.00 0.08 0.08 78 1016.0
20260506022356 17 107 0.0 0.0 0.00 0.08 0.08 78 1015.7
20260506021853 17 125 0.0 0.0 0.00 0.08 0.08 78 1016.1
20260506021350 17 97 1.6 3.2 0.00 0.08 0.08 78 1016.0
20260506020847 18 106 1.6 1.6 0.00 0.08 0.08 77 1015.8
20260506020345 18 130 0.0 0.0 0.00 0.08 0.08 77 1015.8
20260506015842 18 99 0.0 1.6 0.00 0.08 0.08 76 1016.0
20260506015339 18 112 0.0 1.6 0.00 0.08 0.08 76 1016.2
20260506014836 18 105 1.6 3.2 0.00 0.08 0.08 76 1015.7
20260506014333 18 90 1.6 1.6 0.00 0.08 0.08 75 1015.9
20260506013829 18 153 1.6 1.6 0.00 0.08 0.08 74 1015.9
20260506013327 18 108 1.6 1.6 0.00 0.08 0.08 73 1015.8
20260506012823 18 128 1.6 3.2 0.00 0.08 0.08 72 1015.9
20260506012321 18 102 0.0 1.6 0.00 0.08 0.08 72 1015.6
20260506011818 18 91 0.0 1.6 0.00 0.08 0.08 74 1015.8
20260506011314 18 102 0.0 1.6 0.00 0.08 0.08 73 1015.7
20260506010812 18 96 0.0 0.0 0.00 0.08 0.08 73 1015.6
20260506010310 18 97 0.0 0.0 0.00 0.08 0.08 74 1015.7
20260506005806 18 106 0.0 0.0 0.00 0.08 0.08 74 1015.7
20260506005305 18 101 0.0 1.6 0.00 0.08 0.08 74 1015.5
20260506004759 18 120 1.6 1.6 0.00 0.08 0.08 75 1015.5
20260506004257 18 110 4.8 4.8 0.00 0.08 0.08 75 1015.7
20260506003753 18 127 1.6 1.6 0.00 0.08 0.08 75 1015.6
20260506003249 18 112 1.6 1.6 0.00 0.08 0.08 75 1015.4
20260506002745 18 114 1.6 1.6 0.00 0.08 0.08 75 1015.7
20260506002242 18 73 3.2 3.2 0.00 0.08 0.08 75 1015.6
20260506001738 18 115 1.6 1.6 0.00 0.08 0.08 75 1015.5
20260506001235 18 112 3.2 3.2 0.00 0.08 0.08 74 1015.5
20260506000732 18 107 3.2 4.8 0.00 0.08 0.08 74 1015.4
20260506000230 18 116 1.6 1.6 0.00 0.08 0.08 74 1015.5
20260505235726 18 117 1.6 1.6 0.00 0.08 0.08 74 1015.4
20260505235224 18 125 1.6 1.6 0.00 0.08 0.08 74 1015.6
20260505234721 18 114 0.0 0.0 0.00 0.08 0.08 74 1015.5
20260505234218 18 114 1.6 1.6 0.00 0.08 0.08 74 1015.5
20260505233714 18 49 1.6 1.6 0.00 0.08 0.08 74 1015.2
20260505233213 18 103 1.6 3.2 0.00 0.08 0.08 74 1015.4
20260505232710 18 90 1.6 3.2 0.00 0.08 0.08 74 1015.5
20260505232207 18 78 1.6 3.2 0.00 0.08 0.08 73 1015.3
20260505231704 18 123 1.6 3.2 0.00 0.08 0.08 75 1015.5
20260505231203 18 323 3.2 4.8 0.00 0.08 0.08 73 1015.5
20260505230701 18 151 3.2 3.2 0.00 0.08 0.08 73 1015.5
20260505230157 18 311 0.0 1.6 0.00 0.08 0.08 74 1015.4
20260505225653 18 160 1.6 3.2 0.00 0.08 0.08 74 1015.6
20260505225150 18 96 0.0 0.0 0.00 0.08 0.08 73 1015.4
20260505224645 20 206 3.2 3.2 0.00 0.08 0.08 71 1015.6
20260505224144 18 112 0.0 0.0 0.00 0.08 0.08 74 1015.6
20260505223641 19 67 1.6 1.6 0.00 0.08 0.08 72 1015.6
20260505223136 20 99 0.0 0.0 0.00 0.08 0.08 72 1015.6
20260505222633 19 85 1.6 1.6 0.00 0.08 0.08 72 1015.9
20260505222129 19 140 1.6 1.6 0.00 0.08 0.08 71 1015.7
20260505221626 18 117 1.6 1.6 0.00 0.08 0.08 73 1015.9
20260505221123 19 123 1.6 1.6 0.00 0.08 0.08 70 1016.0
20260505220621 19 97 1.6 1.6 0.00 0.08 0.08 72 1016.0
20260505220118 20 136 3.2 3.2 0.00 0.08 0.08 71 1016.1
20260505215615 19 98 0.0 0.0 0.00 0.08 0.08 72 1015.9
20260505215113 19 98 1.6 1.6 0.00 0.08 0.08 73 1016.2
20260505214611 20 99 0.0 1.6 0.00 0.08 0.08 71 1015.9
20260505214108 18 119 0.0 0.0 0.00 0.08 0.08 74 1016.0
20260505213606 18 97 0.0 0.0 0.00 0.08 0.08 74 1016.1
20260505213102 18 131 1.6 1.6 0.00 0.08 0.08 76 1016.0